createdAt,value
2022-11-04T03:19:44.852Z,87.10
2022-11-04T11:50:24.238Z,89.80
2022-11-04T12:18:36.837Z,89.70
2022-11-04T12:29:01.893Z,89.60
2022-11-04T12:45:45.642Z,89.30
2022-11-04T12:47:19.664Z,89.30
2022-11-04T12:49:54.744Z,88.90
2022-11-04T12:51:18.739Z,89.00
2022-11-04T12:51:53.549Z,88.90
2022-11-04T12:53:57.262Z,89.20
2022-11-04T12:55:40.978Z,88.90
2022-11-04T12:58:33.960Z,89.00
2022-11-04T13:00:08.124Z,88.90
2022-11-04T13:09:08.156Z,88.20
2022-11-04T13:30:38.458Z,87.10
2022-11-04T13:33:42.148Z,87.10
2022-11-04T13:34:48.220Z,87.40
2022-11-04T13:35:31.680Z,87.80
2022-11-04T13:36:40.506Z,88.00
2022-11-04T13:37:29.413Z,88.50
2022-11-04T13:38:14.909Z,88.40
2022-11-04T13:38:54.869Z,89.00
2022-11-04T13:39:36.988Z,89.70
2022-11-04T13:40:20.599Z,88.70
2022-11-04T13:41:12.831Z,89.90
2022-11-04T13:42:21.946Z,87.70
2022-11-04T13:43:36.002Z,89.20
2022-11-04T13:44:34.549Z,89.30
2022-11-04T13:45:14.055Z,89.00
2022-11-04T13:45:50.452Z,87.20
2022-11-04T13:46:23.677Z,89.30
2022-11-04T13:47:00.035Z,89.40
2022-11-04T13:47:37.707Z,89.20
2022-11-04T13:48:11.955Z,88.80
2022-11-04T13:49:18.540Z,88.80
2022-11-04T13:49:55.190Z,89.30
2022-11-04T13:50:37.490Z,90.20
2022-11-04T13:51:12.275Z,89.50
2022-11-04T13:52:00.635Z,89.50
2022-11-04T13:52:36.158Z,89.40
2022-11-04T13:53:11.661Z,89.00
2022-11-04T13:53:55.353Z,90.00
2022-11-04T13:54:27.068Z,88.80
2022-11-04T13:55:04.519Z,89.80
2022-11-04T13:55:49.789Z,89.30
2022-11-04T13:56:40.574Z,89.30
2022-11-04T13:57:15.075Z,90.00
2022-11-04T13:57:55.511Z,90.10
2022-11-04T13:58:27.993Z,90.00
2022-11-04T13:59:30.001Z,90.10
2022-11-04T14:00:17.143Z,89.00
2022-11-04T14:01:10.529Z,89.00
2022-11-04T14:01:42.915Z,89.40
2022-11-04T14:02:14.790Z,89.60
2022-11-04T14:02:47.726Z,88.90
2022-11-04T14:03:22.120Z,89.40
2022-11-04T14:04:18.816Z,88.90
2022-11-04T14:04:50.636Z,89.30
2022-11-04T14:05:42.705Z,88.90
2022-11-04T14:06:14.586Z,90.00
2022-11-04T14:07:03.672Z,88.90
2022-11-04T14:08:03.485Z,89.40
2022-11-04T14:08:35.557Z,89.40
2022-11-04T14:09:36.683Z,90.20
2022-11-04T14:10:47.077Z,88.90
2022-11-04T14:11:18.889Z,89.50
2022-11-04T14:12:09.069Z,90.00
2022-11-04T14:12:40.891Z,89.80
2022-11-04T14:13:35.097Z,89.10
2022-11-04T14:14:19.802Z,89.70
2022-11-04T14:14:54.327Z,90.50
2022-11-04T14:16:02.774Z,89.40
2022-11-04T14:16:39.565Z,89.90
2022-11-04T14:17:33.163Z,89.40
2022-11-04T14:18:09.075Z,89.80
2022-11-04T14:18:45.848Z,89.80
2022-11-04T14:19:46.868Z,90.20
2022-11-04T14:20:29.745Z,89.10
2022-11-04T14:21:12.938Z,89.70
2022-11-04T14:22:07.811Z,90.40
2022-11-04T14:22:48.327Z,89.80
2022-11-04T14:23:24.686Z,90.20
2022-11-04T14:24:00.284Z,89.30
2022-11-04T14:24:33.036Z,89.70
2022-11-04T14:25:36.401Z,89.20
2022-11-04T14:26:11.245Z,89.70
2022-11-04T14:26:44.095Z,89.30
2022-11-04T14:27:39.492Z,90.00
2022-11-04T14:28:11.186Z,89.20
2022-11-04T14:29:01.158Z,89.30
2022-11-04T14:29:34.045Z,90.20
2022-11-04T14:30:26.370Z,88.10
2022-11-04T14:31:04.039Z,89.70
2022-11-04T14:31:39.174Z,90.10
2022-11-04T14:32:12.898Z,90.50
2022-11-04T14:32:44.900Z,88.70
2022-11-04T14:33:34.812Z,90.50
2022-11-04T14:34:22.365Z,89.60
2022-11-04T14:35:03.448Z,89.70
2022-11-04T14:35:36.129Z,89.60
2022-11-04T14:36:14.293Z,89.70
2022-11-04T14:36:46.119Z,89.30
2022-11-04T14:37:28.629Z,89.90
2022-11-04T14:38:07.122Z,89.20
2022-11-04T14:38:39.494Z,89.70
2022-11-04T14:39:11.162Z,90.10
2022-11-04T14:39:43.272Z,90.30
2022-11-04T14:40:27.282Z,89.20
2022-11-04T14:41:32.999Z,89.50
2022-11-04T14:42:06.761Z,89.60
2022-11-04T14:42:52.278Z,89.10
2022-11-04T14:43:46.353Z,89.50
2022-11-04T14:44:48.052Z,89.50
2022-11-04T14:45:25.492Z,89.10
2022-11-04T14:45:59.668Z,90.10
2022-11-04T14:46:43.940Z,89.00
2022-11-04T14:47:33.001Z,89.50
2022-11-04T14:48:20.240Z,89.40
2022-11-04T14:48:56.416Z,89.40
2022-11-04T14:49:38.557Z,89.40
2022-11-04T14:50:19.448Z,89.50
2022-11-04T14:50:54.175Z,89.40
2022-11-04T14:51:31.694Z,89.40
2022-11-04T14:52:04.442Z,89.50
2022-11-04T14:52:42.229Z,89.50
2022-11-04T14:53:42.089Z,89.50
2022-11-04T14:54:22.184Z,89.30
2022-11-04T14:55:02.385Z,89.30
2022-11-04T14:55:35.442Z,89.30
2022-11-04T14:56:16.737Z,89.20
2022-11-04T14:57:12.733Z,89.30
2022-11-04T14:57:46.041Z,90.10
2022-11-04T14:58:28.243Z,90.30
2022-11-04T14:59:06.320Z,88.80
2022-11-04T14:59:38.073Z,89.30
2022-11-04T15:00:40.699Z,88.80
2022-11-04T15:01:15.452Z,89.20
2022-11-04T15:01:48.680Z,89.30
2022-11-04T15:02:24.560Z,88.80
2022-11-04T15:04:08.749Z,89.30
2022-11-04T15:04:30.799Z,89.40
2022-11-04T15:05:02.735Z,89.20
2022-11-04T15:05:37.439Z,88.70
2022-11-04T15:06:11.321Z,89.60
2022-11-04T15:06:58.448Z,89.20
2022-11-04T15:07:39.301Z,89.20
2022-11-04T15:08:31.453Z,89.30
2022-11-04T15:09:03.476Z,88.70
2022-11-04T15:09:46.850Z,87.30
2022-11-04T15:10:20.739Z,89.10
2022-11-04T15:10:57.317Z,89.20
2022-11-04T15:11:48.928Z,89.20
2022-11-04T15:12:39.494Z,89.10
2022-11-04T15:13:11.648Z,90.10
2022-11-04T15:13:49.399Z,88.70
2022-11-04T15:14:24.749Z,89.10
2022-11-04T15:14:59.344Z,89.90
2022-11-04T15:15:36.439Z,89.90
2022-11-04T15:16:14.482Z,89.20
2022-11-04T15:16:50.908Z,89.10
2022-11-04T15:17:27.581Z,88.70
2022-11-04T15:18:03.349Z,89.80
2022-11-04T15:18:39.573Z,89.00
2022-11-04T15:19:11.625Z,89.80
2022-11-04T15:19:47.770Z,88.80
2022-11-04T15:20:25.777Z,89.40
2022-11-04T15:21:02.919Z,89.20
2022-11-04T15:21:40.003Z,89.80
2022-11-04T15:22:13.959Z,90.20
2022-11-04T15:22:46.009Z,90.00
2022-11-04T15:23:27.949Z,89.40
2022-11-04T15:24:01.567Z,89.20
2022-11-04T15:24:35.152Z,87.10
2022-11-04T15:25:11.986Z,89.90
2022-11-04T15:25:50.208Z,89.50
2022-11-04T15:26:29.450Z,89.30
2022-11-04T15:27:06.746Z,88.80
2022-11-04T15:27:40.701Z,89.30
2022-11-04T15:28:34.373Z,89.50
2022-11-04T15:29:11.510Z,89.30
2022-11-04T15:30:22.838Z,89.30
2022-11-04T15:31:17.714Z,89.20
2022-11-04T15:31:59.044Z,89.20
2022-11-04T15:32:31.355Z,89.60
2022-11-04T15:33:04.398Z,89.10
2022-11-04T15:33:45.474Z,89.10
2022-11-04T15:34:18.295Z,89.10
2022-11-04T15:34:50.900Z,88.60
2022-11-04T15:35:24.215Z,89.30
2022-11-04T15:35:58.779Z,90.50
2022-11-04T15:36:39.753Z,89.70
2022-11-04T15:37:12.808Z,88.70
2022-11-04T15:37:45.264Z,89.80
2022-11-04T15:38:17.149Z,89.90
2022-11-04T15:38:55.045Z,88.60
2022-11-04T15:39:36.185Z,86.90
2022-11-04T15:40:14.440Z,89.20
2022-11-04T15:40:47.387Z,88.80
2022-11-04T15:41:40.955Z,89.50
2022-11-04T15:42:43.474Z,89.20
2022-11-04T15:43:16.517Z,89.20
2022-11-04T15:43:49.206Z,90.20
2022-11-04T15:44:33.508Z,89.40
2022-11-04T15:45:31.123Z,88.70
2022-11-04T15:46:04.733Z,89.30
2022-11-04T15:46:36.983Z,88.80
2022-11-04T15:47:17.667Z,89.90
2022-11-04T15:48:09.867Z,88.80
2022-11-04T15:48:41.624Z,89.80
2022-11-04T15:49:24.696Z,88.80
2022-11-04T15:50:16.380Z,89.90
2022-11-04T15:51:10.011Z,89.20
2022-11-04T15:51:42.605Z,89.20
2022-11-04T15:52:25.818Z,88.80
2022-11-04T15:52:58.436Z,90.60
2022-11-04T15:53:34.780Z,90.20
2022-11-04T15:54:18.953Z,89.10
2022-11-04T15:54:58.857Z,90.20
2022-11-04T15:55:32.400Z,89.10
2022-11-04T15:56:04.591Z,89.30
2022-11-04T15:56:45.301Z,88.70
2022-11-04T15:57:24.040Z,89.20
2022-11-04T15:57:56.342Z,89.20
2022-11-04T15:58:28.786Z,89.30
2022-11-04T15:59:01.496Z,90.00
2022-11-04T15:59:37.213Z,89.70
2022-11-04T16:00:24.816Z,89.30
2022-11-04T16:00:57.260Z,89.30
2022-11-04T16:01:29.438Z,88.90
2022-11-04T16:02:04.435Z,90.30
2022-11-04T16:02:44.978Z,88.80
2022-11-04T16:03:22.729Z,90.10
2022-11-04T16:03:57.949Z,90.00
2022-11-04T16:04:30.445Z,89.50
2022-11-04T16:05:10.662Z,88.80
2022-11-04T16:05:42.537Z,89.30
2022-11-04T16:06:14.358Z,89.30
2022-11-04T16:06:49.096Z,88.80
2022-11-04T16:07:23.571Z,88.80
2022-11-04T16:08:13.085Z,89.30
2022-11-04T16:09:00.644Z,89.20
2022-11-04T16:09:49.167Z,90.10
2022-11-04T16:10:39.498Z,89.20
2022-11-04T16:11:17.938Z,89.50
2022-11-04T16:12:12.732Z,89.20
2022-11-04T16:12:45.408Z,89.10
2022-11-04T16:13:17.181Z,88.70
2022-11-04T16:13:48.933Z,89.20
2022-11-04T16:14:24.869Z,89.20
2022-11-04T16:14:58.750Z,89.10
2022-11-04T16:15:39.760Z,89.10
2022-11-04T16:16:22.730Z,89.00
2022-11-04T16:16:54.893Z,89.00
2022-11-04T16:17:29.093Z,89.60
2022-11-04T16:18:02.223Z,88.90
2022-11-04T16:18:42.420Z,88.80
2022-11-04T16:19:24.320Z,89.60
2022-11-04T16:20:05.996Z,89.40
2022-11-04T16:20:37.967Z,88.90
2022-11-04T16:21:13.957Z,89.00
2022-11-04T16:21:46.817Z,89.30
2022-11-04T16:22:32.566Z,88.80
2022-11-04T16:23:04.475Z,88.70
2022-11-04T16:23:45.795Z,89.40
2022-11-04T16:24:25.125Z,88.70
2022-11-04T16:24:58.914Z,88.60
2022-11-04T16:25:34.872Z,88.10
2022-11-04T16:26:07.482Z,88.60
2022-11-04T16:26:44.442Z,90.30
2022-11-04T16:27:19.948Z,88.50
2022-11-04T16:27:51.797Z,88.40
2022-11-04T16:28:24.107Z,87.10
2022-11-04T16:28:58.557Z,90.20
2022-11-04T16:29:33.473Z,88.50
2022-11-04T16:30:18.402Z,89.20
2022-11-04T16:31:05.562Z,88.40
2022-11-04T16:31:37.786Z,89.10
2022-11-04T16:32:17.932Z,89.10
2022-11-04T16:32:53.913Z,88.30
2022-11-04T16:33:25.729Z,88.90
2022-11-04T16:33:57.516Z,88.70
2022-11-04T16:34:29.333Z,88.50
2022-11-04T16:35:11.688Z,88.40
2022-11-04T16:35:43.421Z,88.30
2022-11-04T16:36:23.413Z,87.80
2022-11-04T16:36:57.955Z,89.10
2022-11-04T16:37:31.576Z,88.40
2022-11-04T16:38:03.417Z,87.90
2022-11-04T16:38:35.214Z,88.30
2022-11-04T16:39:10.782Z,88.80
2022-11-04T16:39:45.140Z,88.70
2022-11-04T16:40:18.033Z,88.20
2022-11-04T16:40:50.724Z,88.20
2022-11-04T16:41:25.064Z,88.10
2022-11-04T16:41:57.410Z,87.80
2022-11-04T16:42:29.185Z,88.50
2022-11-04T16:43:00.932Z,88.10
2022-11-04T16:43:33.155Z,87.60
2022-11-04T16:44:06.089Z,89.10
2022-11-04T16:44:37.890Z,88.00
2022-11-04T16:45:23.652Z,87.60
2022-11-04T16:45:55.881Z,87.60
2022-11-04T16:46:27.835Z,87.60
2022-11-04T16:47:00.600Z,87.60
2022-11-04T16:47:35.957Z,88.10
2022-11-04T16:48:10.401Z,88.50
2022-11-04T16:48:42.168Z,88.00
2022-11-04T16:49:16.136Z,87.50
2022-11-04T16:49:47.947Z,88.00
2022-11-04T16:50:19.862Z,87.50
2022-11-04T16:50:51.628Z,87.60
2022-11-04T16:51:24.211Z,88.50
2022-11-04T16:52:01.245Z,87.50
2022-11-04T16:52:33.535Z,88.00
2022-11-04T16:53:05.267Z,88.00
2022-11-04T16:53:37.128Z,87.40
2022-11-04T16:54:08.989Z,87.50
2022-11-04T16:54:40.711Z,87.70
2022-11-04T16:55:15.519Z,88.00
2022-11-04T16:55:47.571Z,88.00
2022-11-04T16:56:24.405Z,87.40
2022-11-04T16:56:57.174Z,87.90
2022-11-04T16:57:28.911Z,89.30
2022-11-04T16:58:04.610Z,87.40
2022-11-04T16:58:36.309Z,87.30
2022-11-04T16:59:11.575Z,87.30
2022-11-04T16:59:43.797Z,88.40
2022-11-04T17:00:26.374Z,89.00
2022-11-04T17:01:04.123Z,87.30
2022-11-04T17:01:39.710Z,88.10
2022-11-04T17:02:30.807Z,87.80
2022-11-04T17:03:22.396Z,87.70
2022-11-04T17:03:54.126Z,87.70
2022-11-04T17:04:25.850Z,87.30
2022-11-04T17:04:58.412Z,88.00
2022-11-04T17:05:30.442Z,89.10
2022-11-04T17:06:02.524Z,87.80
2022-11-04T17:06:34.936Z,87.20
2022-11-04T17:07:08.985Z,87.20
2022-11-04T17:07:52.906Z,87.70
2022-11-04T17:08:27.218Z,87.10
2022-11-04T17:08:59.220Z,87.10
2022-11-04T17:09:30.960Z,87.80
2022-11-04T17:10:05.186Z,87.60
2022-11-04T17:10:37.182Z,87.10
2022-11-04T17:11:10.353Z,87.70
2022-11-04T17:11:42.457Z,87.10
2022-11-04T17:12:14.430Z,87.60
2022-11-04T17:12:47.370Z,87.10
2022-11-04T17:13:19.179Z,87.80
2022-11-04T17:13:51.167Z,86.30
2022-11-04T17:14:22.893Z,87.60
2022-11-04T17:14:54.644Z,87.10
2022-11-04T17:15:26.413Z,87.70
2022-11-04T17:15:58.204Z,87.10
2022-11-04T17:16:30.088Z,87.70
2022-11-04T17:17:03.728Z,87.10
2022-11-04T17:17:35.526Z,88.20
2022-11-04T17:18:09.440Z,87.80
2022-11-04T17:18:41.726Z,87.60
2022-11-04T17:19:16.798Z,87.80
2022-11-04T17:19:48.548Z,87.60
2022-11-04T17:20:20.467Z,87.10
2022-11-04T17:20:55.366Z,87.10
2022-11-04T17:21:27.170Z,88.30
2022-11-04T17:22:02.033Z,87.60
2022-11-04T17:22:36.544Z,87.60
2022-11-04T17:23:12.249Z,87.50
2022-11-04T17:23:44.545Z,87.10
2022-11-04T17:24:16.246Z,87.60
2022-11-04T17:24:48.084Z,87.00
2022-11-04T17:25:22.483Z,88.60
2022-11-04T17:25:54.295Z,87.00
2022-11-04T17:26:26.163Z,87.50
2022-11-04T17:26:58.062Z,87.50
2022-11-04T17:27:29.749Z,87.50
2022-11-04T17:28:01.481Z,87.50
2022-11-04T17:28:33.443Z,87.90
2022-11-04T17:29:05.332Z,88.20
2022-11-04T17:29:37.489Z,88.50
2022-11-04T17:30:09.645Z,87.40
2022-11-04T17:30:42.912Z,87.50
2022-11-04T17:31:19.596Z,87.40
2022-11-04T17:31:52.933Z,88.40
2022-11-04T17:32:24.677Z,87.40
2022-11-04T17:32:57.070Z,87.50
2022-11-04T17:33:28.961Z,87.50
2022-11-04T17:34:00.741Z,86.80
2022-11-04T17:34:32.784Z,86.80
2022-11-04T17:35:04.889Z,87.50
2022-11-04T17:35:41.299Z,86.80
2022-11-04T17:36:18.625Z,87.40
2022-11-04T17:36:50.365Z,87.50
2022-11-04T17:37:22.111Z,86.80
2022-11-04T17:37:54.983Z,87.40
2022-11-04T17:38:27.126Z,86.90
2022-11-04T17:38:58.846Z,87.40
2022-11-04T17:39:30.627Z,87.30
2022-11-04T17:40:02.790Z,89.80
2022-11-04T17:40:54.582Z,86.70
2022-11-04T17:41:45.073Z,88.10
2022-11-04T17:42:35.541Z,88.60
2022-11-04T17:43:26.494Z,87.40
2022-11-04T17:44:01.294Z,86.80
2022-11-04T17:44:33.082Z,87.40
2022-11-04T17:45:05.135Z,88.50
2022-11-04T17:45:36.892Z,87.30
2022-11-04T17:46:27.204Z,87.90
2022-11-04T17:47:00.736Z,87.20
2022-11-04T17:47:36.434Z,87.20
2022-11-04T17:48:10.207Z,86.80
2022-11-04T17:48:41.998Z,87.30
2022-11-04T17:49:19.843Z,89.30
2022-11-04T17:49:51.558Z,87.10
2022-11-04T17:50:23.776Z,86.70
2022-11-04T17:50:55.516Z,88.10
2022-11-04T17:51:28.169Z,86.70
2022-11-04T17:52:01.025Z,87.10
2022-11-04T17:52:33.106Z,87.10
2022-11-04T17:53:04.979Z,86.70
2022-11-04T17:53:36.731Z,87.10
2022-11-04T17:54:09.374Z,87.40
2022-11-04T17:54:41.065Z,87.20
2022-11-04T17:55:16.891Z,87.40
2022-11-04T17:55:50.584Z,87.10
2022-11-04T17:56:23.992Z,87.80
2022-11-04T17:56:56.546Z,86.60
2022-11-04T17:57:28.283Z,87.20
2022-11-04T17:57:59.991Z,88.10
2022-11-04T17:58:31.763Z,86.50
2022-11-04T17:59:37.038Z,86.50
2022-11-04T18:00:09.704Z,87.00
2022-11-04T18:00:41.497Z,87.00
2022-11-04T18:01:15.770Z,86.50
2022-11-04T18:01:48.306Z,87.00
2022-11-04T18:02:20.328Z,86.50
2022-11-04T18:02:52.338Z,87.10
2022-11-04T18:03:24.175Z,87.90
2022-11-04T18:03:56.331Z,87.90
2022-11-04T18:04:28.076Z,86.60
2022-11-04T18:05:01.635Z,87.90
2022-11-04T18:05:33.339Z,87.80
2022-11-04T18:06:05.649Z,87.60
2022-11-04T18:06:39.630Z,86.60
2022-11-04T18:07:11.815Z,87.10
2022-11-04T18:07:43.596Z,88.30
2022-11-04T18:08:15.480Z,86.50
2022-11-04T18:08:47.948Z,87.60
2022-11-04T18:09:19.873Z,87.00
2022-11-04T18:09:51.602Z,87.10
2022-11-04T18:10:23.381Z,87.00
2022-11-04T18:11:04.585Z,86.50
2022-11-04T18:11:55.417Z,86.60
2022-11-04T18:12:41.522Z,87.00
2022-11-04T18:13:13.540Z,88.60
2022-11-04T18:13:45.388Z,87.20
2022-11-04T18:14:18.108Z,87.20
2022-11-04T18:14:50.044Z,87.10
2022-11-04T18:15:22.008Z,88.50
2022-11-04T18:15:53.770Z,87.40
2022-11-04T18:16:25.588Z,87.20
2022-11-04T18:16:57.441Z,86.60
2022-11-04T18:17:29.737Z,86.70
2022-11-04T18:18:01.679Z,87.50
2022-11-04T18:18:33.463Z,87.30
2022-11-04T18:19:05.167Z,87.20
2022-11-04T18:19:36.916Z,87.70
2022-11-04T18:20:13.817Z,86.70
2022-11-04T18:20:46.420Z,87.20
2022-11-04T18:21:18.493Z,86.70
2022-11-04T18:21:51.021Z,86.80
2022-11-04T18:22:22.854Z,87.40
2022-11-04T18:22:54.654Z,87.30
2022-11-04T18:23:26.576Z,86.80
2022-11-04T18:23:58.898Z,88.00
2022-11-04T18:24:31.644Z,86.70
2022-11-04T18:25:03.852Z,87.20
2022-11-04T18:25:38.355Z,87.30
2022-11-04T18:26:11.269Z,88.00
2022-11-04T18:26:43.594Z,87.20
2022-11-04T18:27:15.837Z,86.80
2022-11-04T18:27:48.883Z,87.30
2022-11-04T18:28:20.710Z,88.20
2022-11-04T18:28:53.484Z,87.40
2022-11-04T18:29:25.560Z,87.40
2022-11-04T18:29:57.351Z,87.40
2022-11-04T18:30:29.095Z,87.40
2022-11-04T18:31:00.824Z,86.80
2022-11-04T18:31:35.600Z,87.40
2022-11-04T18:32:07.443Z,86.90
2022-11-04T18:32:39.233Z,86.80
2022-11-04T18:33:11.353Z,88.20
2022-11-04T18:33:43.452Z,86.80
2022-11-04T18:34:17.704Z,86.90
2022-11-04T18:34:50.502Z,88.50
2022-11-04T18:35:22.330Z,88.10
2022-11-04T18:35:54.124Z,87.40
2022-11-04T18:36:26.632Z,87.00
2022-11-04T18:37:00.115Z,86.90
2022-11-04T18:37:31.897Z,86.90
2022-11-04T18:38:03.650Z,86.90
2022-11-04T18:38:35.681Z,88.90
2022-11-04T18:39:10.575Z,89.40
2022-11-04T18:39:43.307Z,87.90
2022-11-04T18:40:16.418Z,87.50
2022-11-04T18:40:48.170Z,87.40
2022-11-04T18:41:20.350Z,87.50
2022-11-04T18:41:52.247Z,87.00
2022-11-04T18:42:24.382Z,86.90
2022-11-04T18:42:56.590Z,87.40
2022-11-04T18:43:28.330Z,87.40
2022-11-04T18:44:00.770Z,86.90
2022-11-04T18:44:32.600Z,87.00
2022-11-04T18:45:04.741Z,87.50
2022-11-04T18:45:37.009Z,87.50
2022-11-04T18:46:11.068Z,87.00
2022-11-04T18:46:43.298Z,87.50
2022-11-04T18:47:15.547Z,86.90
2022-11-04T18:47:48.568Z,87.50
2022-11-04T18:48:21.593Z,87.50
2022-11-04T18:48:53.299Z,87.00
2022-11-04T18:49:25.039Z,86.90
2022-11-04T18:49:56.772Z,87.10
2022-11-04T18:50:28.505Z,88.00
2022-11-04T18:51:00.892Z,87.00
2022-11-04T18:51:32.890Z,88.00
2022-11-04T18:52:04.722Z,88.90
2022-11-04T18:52:36.900Z,87.60
2022-11-04T18:53:09.117Z,87.80
2022-11-04T18:53:41.161Z,87.00
2022-11-04T18:54:14.120Z,87.70
2022-11-04T18:54:46.085Z,88.00
2022-11-04T18:55:17.916Z,87.00
2022-11-04T18:55:49.646Z,87.00
2022-11-04T18:56:23.126Z,88.20
2022-11-04T18:56:54.964Z,87.10
2022-11-04T18:57:27.056Z,87.60
2022-11-04T18:57:59.128Z,87.00
2022-11-04T18:58:33.324Z,87.50
2022-11-04T18:59:08.234Z,87.60
2022-11-04T18:59:39.972Z,87.40
2022-11-04T19:00:16.868Z,87.00
2022-11-04T19:00:49.069Z,87.60
2022-11-04T19:01:25.035Z,87.60
2022-11-04T19:01:56.978Z,87.00
2022-11-04T19:02:29.010Z,88.30
2022-11-04T19:03:02.045Z,87.70
2022-11-04T19:03:35.222Z,87.00
2022-11-04T19:04:07.399Z,87.00
2022-11-04T19:04:39.198Z,88.20
2022-11-04T19:05:11.033Z,87.00
2022-11-04T19:05:42.785Z,87.00
2022-11-04T19:06:18.979Z,88.40
2022-11-04T19:06:50.750Z,88.60
2022-11-04T19:07:22.929Z,87.00
2022-11-04T19:07:54.766Z,86.90
2022-11-04T19:08:26.501Z,86.90
2022-11-04T19:09:13.390Z,87.40
2022-11-04T19:09:50.954Z,87.40
2022-11-04T19:10:22.687Z,89.40
2022-11-04T19:11:01.274Z,87.50
2022-11-04T19:11:36.427Z,88.70
2022-11-04T19:12:27.242Z,88.60
2022-11-04T19:13:17.783Z,88.40
2022-11-04T19:13:58.818Z,87.00
2022-11-04T19:14:30.562Z,87.30
2022-11-04T19:15:04.332Z,87.70
2022-11-04T19:15:36.160Z,87.40
2022-11-04T19:16:12.748Z,87.50
2022-11-04T19:16:44.587Z,87.40
2022-11-04T19:17:16.297Z,87.60
2022-11-04T19:17:48.267Z,87.60
2022-11-04T19:18:20.378Z,87.00
2022-11-04T19:18:54.601Z,86.90
2022-11-04T19:19:26.602Z,87.90
2022-11-04T19:19:58.458Z,86.90
2022-11-04T19:20:30.219Z,88.20
2022-11-04T19:21:06.877Z,87.30
2022-11-04T19:21:39.158Z,87.40
2022-11-04T19:22:11.711Z,86.90
2022-11-04T19:22:43.469Z,86.80
2022-11-04T19:23:15.224Z,88.70
2022-11-04T19:23:47.361Z,87.30
2022-11-04T19:24:19.096Z,87.40
2022-11-04T19:24:51.069Z,86.80
2022-11-04T19:25:22.952Z,88.20
2022-11-04T19:25:59.448Z,87.40
2022-11-04T19:26:35.601Z,87.00
2022-11-04T19:27:07.541Z,88.40
2022-11-04T19:27:39.311Z,87.40
2022-11-04T19:28:33.144Z,88.00
2022-11-04T19:29:05.567Z,88.30
2022-11-04T19:29:37.351Z,88.60
2022-11-04T19:30:09.767Z,87.50
2022-11-04T19:30:41.571Z,87.50
2022-11-04T19:31:19.553Z,86.40
2022-11-04T19:31:51.724Z,87.40
2022-11-04T19:32:23.510Z,87.40
2022-11-04T19:32:55.227Z,87.50
2022-11-04T19:33:27.917Z,88.10
2022-11-04T19:34:04.013Z,87.40
2022-11-04T19:34:37.161Z,87.40
2022-11-04T19:35:08.992Z,87.40
2022-11-04T19:35:41.423Z,88.60
2022-11-04T19:36:15.613Z,88.00
2022-11-04T19:36:47.636Z,87.50
2022-11-04T19:37:19.465Z,87.50
2022-11-04T19:37:51.694Z,88.80
2022-11-04T19:38:24.365Z,87.10
2022-11-04T19:38:56.816Z,88.40
2022-11-04T19:39:29.954Z,88.40
2022-11-04T19:40:01.799Z,87.50
2022-11-04T19:40:34.143Z,87.60
2022-11-04T19:41:32.956Z,87.00
2022-11-04T19:42:23.802Z,87.40
2022-11-04T19:43:10.895Z,87.50
2022-11-04T19:43:42.631Z,87.60
2022-11-04T19:44:17.184Z,89.40
2022-11-04T19:45:21.262Z,87.00
2022-11-04T19:45:53.035Z,87.10
2022-11-04T19:46:25.139Z,87.60
2022-11-04T19:46:56.876Z,87.90
2022-11-04T19:47:28.674Z,87.00
2022-11-04T19:48:00.420Z,88.50
2022-11-04T19:48:32.111Z,87.00
2022-11-04T19:49:04.649Z,87.00
2022-11-04T19:49:36.485Z,87.50
2022-11-04T19:50:08.509Z,88.00
2022-11-04T19:50:46.784Z,87.10
2022-11-04T19:51:18.650Z,89.30
2022-11-04T19:51:50.420Z,87.60
2022-11-04T19:52:22.197Z,88.30
2022-11-04T19:52:53.946Z,87.00
2022-11-04T19:53:25.640Z,87.60
2022-11-04T19:53:57.387Z,88.40
2022-11-04T19:54:29.343Z,88.10
2022-11-04T19:55:01.084Z,87.60
2022-11-04T19:55:32.912Z,87.00
2022-11-04T19:56:05.060Z,88.40
2022-11-04T19:56:37.453Z,87.00
2022-11-04T19:57:09.278Z,87.10
2022-11-04T19:58:13.431Z,87.10
2022-11-04T19:58:45.451Z,87.00
2022-11-04T19:59:18.870Z,87.00
2022-11-04T19:59:52.274Z,87.00
2022-11-04T20:00:24.074Z,87.00
2022-11-04T20:00:55.995Z,89.10
2022-11-04T20:01:28.071Z,87.60
2022-11-04T20:02:00.206Z,89.00
2022-11-04T20:02:32.241Z,88.40
2022-11-04T20:03:04.505Z,87.00
2022-11-04T20:03:37.402Z,87.10
2022-11-04T20:04:10.749Z,87.00
2022-11-04T20:04:42.467Z,87.60
2022-11-04T20:05:14.220Z,87.60
2022-11-04T20:05:46.289Z,87.60
2022-11-04T20:06:20.141Z,87.90
2022-11-04T20:07:24.089Z,87.10
2022-11-04T20:07:56.955Z,88.20
2022-11-04T20:08:31.340Z,88.50
2022-11-04T20:09:07.717Z,87.50
2022-11-04T20:09:39.873Z,87.90
2022-11-04T20:10:12.085Z,88.20
2022-11-04T20:10:44.335Z,88.50
2022-11-04T20:11:17.405Z,87.80
2022-11-04T20:12:07.540Z,87.50
2022-11-04T20:12:58.142Z,87.30
2022-11-04T20:13:47.029Z,87.40
2022-11-04T20:14:18.884Z,89.00
2022-11-04T20:14:50.659Z,87.50
2022-11-04T20:15:22.755Z,86.90
2022-11-04T20:15:54.549Z,87.40
2022-11-04T20:16:31.780Z,87.60
2022-11-04T20:17:06.020Z,87.40
2022-11-04T20:17:37.725Z,87.40
2022-11-04T20:18:09.691Z,87.50
2022-11-04T20:18:41.890Z,89.30
2022-11-04T20:19:17.233Z,88.50
2022-11-04T20:19:51.707Z,86.90
2022-11-04T20:20:23.486Z,86.30
2022-11-04T20:20:55.361Z,86.80
2022-11-04T20:21:33.254Z,86.80
2022-11-04T20:22:05.041Z,86.30
2022-11-04T20:22:37.041Z,87.40
2022-11-04T20:23:08.875Z,86.80
2022-11-04T20:23:41.754Z,86.90
2022-11-04T20:24:14.088Z,87.30
2022-11-04T20:24:45.962Z,87.40
2022-11-04T20:25:17.780Z,86.90
2022-11-04T20:25:49.543Z,86.80
2022-11-04T20:26:24.293Z,87.70
2022-11-04T20:26:56.288Z,88.20
2022-11-04T20:27:28.103Z,86.80
2022-11-04T20:28:01.754Z,87.50
2022-11-04T20:28:33.516Z,87.30
2022-11-04T20:29:06.423Z,88.00
2022-11-04T20:29:38.150Z,89.20
2022-11-04T20:30:10.292Z,87.40
2022-11-04T20:30:42.244Z,86.90
2022-11-04T20:31:19.712Z,86.90
2022-11-04T20:31:51.485Z,88.30
2022-11-04T20:32:23.339Z,87.30
2022-11-04T20:32:55.126Z,88.30
2022-11-04T20:33:26.847Z,87.50
2022-11-04T20:34:02.427Z,86.70
2022-11-04T20:34:34.367Z,89.20
2022-11-04T20:35:07.133Z,86.80
2022-11-04T20:35:38.888Z,86.80
2022-11-04T20:36:12.375Z,86.80
2022-11-04T20:36:44.124Z,86.80
2022-11-04T20:37:15.841Z,87.90
2022-11-04T20:37:47.603Z,86.80
2022-11-04T20:38:19.308Z,86.80
2022-11-04T20:38:59.379Z,87.30
2022-11-04T20:40:05.015Z,84.90
2022-11-04T20:40:36.769Z,87.30
2022-11-04T20:41:15.442Z,88.50
2022-11-04T20:41:47.343Z,87.30
2022-11-04T20:42:19.060Z,86.90
2022-11-04T20:42:51.113Z,87.30
2022-11-04T20:43:22.991Z,87.50
2022-11-04T20:43:55.884Z,87.40
2022-11-04T20:44:27.722Z,86.90
2022-11-04T20:44:59.429Z,88.40
2022-11-04T20:45:31.790Z,87.00
2022-11-04T20:46:06.522Z,87.40
2022-11-04T20:46:40.241Z,87.40
2022-11-04T20:47:12.024Z,87.40
2022-11-04T20:47:43.750Z,87.40
2022-11-04T20:48:15.545Z,88.30
2022-11-04T20:48:47.760Z,86.90
2022-11-04T20:49:19.729Z,86.90
2022-11-04T20:49:52.232Z,87.50
2022-11-04T20:50:24.097Z,87.60
2022-11-04T20:50:55.875Z,87.50
2022-11-04T20:51:29.966Z,88.90
2022-11-04T20:52:01.717Z,88.20
2022-11-04T20:52:35.441Z,86.90
2022-11-04T20:53:07.184Z,86.90
2022-11-04T20:53:39.260Z,87.60
2022-11-04T20:54:12.517Z,87.60
2022-11-04T20:54:44.284Z,88.20
2022-11-04T20:55:16.273Z,86.90
2022-11-04T20:55:50.868Z,87.60
2022-11-04T20:56:24.708Z,86.90
2022-11-04T20:56:56.507Z,87.40
2022-11-04T20:57:28.264Z,87.50
2022-11-04T20:58:00.001Z,87.00
2022-11-04T20:58:35.564Z,87.40
2022-11-04T20:59:09.420Z,87.50
2022-11-04T20:59:41.182Z,88.00
2022-11-04T21:00:13.418Z,87.90
2022-11-04T21:00:45.157Z,87.40
2022-11-04T21:01:26.006Z,86.90
2022-11-04T21:01:59.033Z,87.90
2022-11-04T21:02:30.980Z,85.30
2022-11-04T21:03:02.861Z,87.40
2022-11-04T21:03:34.843Z,86.90
2022-11-04T21:04:11.274Z,86.90
2022-11-04T21:04:42.977Z,88.60
2022-11-04T21:05:14.958Z,87.50
2022-11-04T21:05:46.659Z,87.50
2022-11-04T21:06:19.991Z,87.00
2022-11-04T21:06:52.196Z,87.00
2022-11-04T21:07:23.970Z,86.90
2022-11-04T21:07:55.785Z,89.70
2022-11-04T21:08:27.614Z,88.10
2022-11-04T21:08:59.894Z,86.90
2022-11-04T21:09:32.535Z,86.90
2022-11-04T21:10:04.724Z,86.90
2022-11-04T21:10:36.965Z,87.50
2022-11-04T21:11:08.792Z,88.90
2022-11-04T21:11:41.348Z,88.30